»·PEaware :: QXE515 KPDX-KRDM

QXE515 :: KPDX-KRDM

FLIGHT INFORMATION

Flight Status: Arrived
Operator:
Horizon Air
More flights by this operator :: More flights under this callsign
Pilot: Doug L. (8712)
Aircraft: DEHAVILLAND DASH 8 400
(DH8D)
More flights by this aircraft type
Origin: KPDX Portland Intl
United States
Destination: KRDM Roberts
United States
More flights between these airports :: More routes between these airports
Route: +PTLD1 CUKIS T302 CUPRI
File this flight plan on PilotEdge
Remarks:
Altitude:
(Current/Filed)
15,000ft
Speed:
(Current/Filed)
330kts
Departed: 11-Jan-19 08:07 PM
Arrived: 11-Jan-19 09:10 PM
Distance/Time
Traveled:
101nm/1:02
Distance/Time
To Go:
Arrived

Flight Plot

Page will automatically refresh every two minutes.

Flight plan parsing failed; only flown route is shown


Map Options




Map Legend


Flown Route
Filed Route
Departure Airport
Arrival Airport
Navaid (VOR, NDB)
Fix

Horizontal Profiles

Position Reports

Time Latitude Longitude Heading Altitude Ground
Speed
11-Jan-19 19:44 45.585663 -122.591657 68 37ft 0kts
11-Jan-19 19:45 45.585663 -122.591657 68 37ft 0kts
11-Jan-19 19:46 45.585663 -122.591657 68 37ft 0kts
11-Jan-19 19:47 45.585663 -122.591657 68 37ft 0kts
11-Jan-19 19:48 45.585663 -122.591657 68 37ft 0kts
11-Jan-19 19:49 45.585663 -122.591657 68 37ft 0kts
11-Jan-19 19:50 45.585663 -122.591657 68 37ft 0kts
11-Jan-19 19:51 45.585663 -122.591657 68 37ft 0kts
11-Jan-19 19:52 45.585663 -122.591657 68 37ft 0kts
11-Jan-19 19:53 45.585663 -122.591657 68 37ft 0kts
11-Jan-19 19:54 45.585663 -122.591657 68 37ft 0kts
11-Jan-19 19:55 45.585663 -122.591657 68 37ft 0kts
11-Jan-19 19:56 45.585658 -122.591677 67 37ft 1kts
11-Jan-19 19:57 45.585220 -122.591882 312 37ft 2kts
11-Jan-19 19:58 45.585138 -122.591740 308 37ft 0kts
11-Jan-19 19:59 45.585122 -122.591713 308 37ft 0kts
11-Jan-19 20:00 45.586653 -122.594401 309 37ft 18kts
11-Jan-19 20:01 45.588293 -122.600669 299 37ft 20kts
11-Jan-19 20:02 45.591410 -122.607000 299 37ft 17kts
11-Jan-19 20:03 45.594595 -122.615124 300 37ft 27kts
11-Jan-19 20:04 45.596282 -122.619574 296 37ft 0kts
11-Jan-19 20:05 45.595293 -122.621274 210 37ft 6kts
11-Jan-19 20:06 45.587264 -122.601515 120 362ft 138kts
11-Jan-19 20:07 45.563101 -122.551211 125 3153ft 150kts
11-Jan-19 20:08 45.534020 -122.508965 147 6148ft 150kts
11-Jan-19 20:09 45.496672 -122.478654 149 8896ft 156kts
11-Jan-19 20:10 45.458019 -122.446861 153 11451ft 158kts
11-Jan-19 20:11 45.419000 -122.416369 154 13563ft 163kts
11-Jan-19 20:12 45.376713 -122.384181 155 14993ft 201kts
11-Jan-19 20:13 45.326239 -122.324075 133 15002ft 275kts
11-Jan-19 20:14 45.274781 -122.236839 133 15010ft 306kts
11-Jan-19 20:15 45.219120 -122.142888 133 15021ft 320kts
11-Jan-19 20:16 45.161476 -122.046011 133 15033ft 326kts
11-Jan-19 20:17 45.103149 -121.948587 133 15044ft 330kts
11-Jan-19 20:18 45.044174 -121.850033 132 15063ft 331kts
11-Jan-19 20:19 44.985564 -121.752558 133 14983ft 325kts
11-Jan-19 20:20 44.926211 -121.658402 139 14981ft 319kts
11-Jan-19 20:21 44.861568 -121.574562 140 14992ft 316kts
11-Jan-19 20:22 44.797697 -121.490517 139 14995ft 316kts
11-Jan-19 20:23 44.733941 -121.406999 139 14996ft 316kts
11-Jan-19 20:25 44.670462 -121.324147 140 14681ft 320kts
11-Jan-19 20:26 44.615175 -121.234106 113 11743ft 307kts
11-Jan-19 20:27 44.594228 -121.123359 114 8774ft 284kts
11-Jan-19 20:28 44.562331 -121.032540 122 7065ft 242kts
11-Jan-19 20:29 44.522903 -120.959098 132 7015ft 237kts
11-Jan-19 20:30 44.473282 -120.895347 141 7020ft 249kts
11-Jan-19 20:31 44.416023 -120.848945 171 7003ft 232kts
11-Jan-19 20:32 44.364675 -120.889624 231 6572ft 220kts
11-Jan-19 20:33 44.335326 -120.953794 234 5719ft 185kts
11-Jan-19 20:34 44.308730 -121.016232 237 5037ft 181kts
11-Jan-19 20:35 44.287639 -121.067725 240 4212ft 124kts
11-Jan-19 20:36 44.267692 -121.115863 241 3407ft 126kts
11-Jan-19 20:37 44.248909 -121.157950 246 4387ft 149kts
11-Jan-19 20:38 44.273288 -121.195393 336 6858ft 160kts
11-Jan-19 20:39 44.332529 -121.225316 335 6999ft 295kts
11-Jan-19 20:40 44.405514 -121.270699 349 6971ft 269kts
11-Jan-19 20:41 44.476796 -121.266732 8 6990ft 250kts
11-Jan-19 20:42 44.544524 -121.260138 5 6982ft 240kts
11-Jan-19 20:43 44.613123 -121.254045 7 7024ft 260kts
11-Jan-19 20:43 44.669568 -121.253879 4 7008ft 268kts
11-Jan-19 20:44 44.735060 -121.285595 290 6997ft 276kts
11-Jan-19 20:46 44.695589 -121.354350 157 7012ft 216kts
11-Jan-19 20:47 44.647275 -121.307922 142 7004ft 212kts
11-Jan-19 20:48 44.596150 -121.274966 188 7010ft 233kts
11-Jan-19 20:49 44.578408 -121.352029 303 8953ft 245kts
11-Jan-19 20:50 44.640188 -121.370370 3 11327ft 228kts
11-Jan-19 20:50 44.693242 -121.364705 9 12921ft 245kts
11-Jan-19 20:51 44.726731 -121.283594 110 13005ft 283kts
11-Jan-19 20:52 44.664964 -121.242093 189 13002ft 270kts
11-Jan-19 20:53 44.594163 -121.264992 206 12993ft 260kts
11-Jan-19 20:54 44.574302 -121.354769 292 12993ft 284kts
11-Jan-19 20:55 44.642580 -121.379413 36 12994ft 280kts
11-Jan-19 20:56 44.649280 -121.292856 136 13005ft 238kts
11-Jan-19 20:57 44.612746 -121.210975 109 11746ft 282kts
11-Jan-19 20:58 44.589623 -121.105357 116 9953ft 273kts
11-Jan-19 20:59 44.557644 -121.021655 125 8149ft 226kts
11-Jan-19 21:00 44.523377 -120.959903 132 7097ft 168kts
11-Jan-19 21:01 44.487754 -120.911287 137 7089ft 190kts
11-Jan-19 21:02 44.444009 -120.868312 150 7114ft 198kts
11-Jan-19 21:03 44.393237 -120.849170 201 6551ft 216kts
11-Jan-19 21:04 44.356250 -120.908019 230 5299ft 166kts
11-Jan-19 21:05 44.328766 -120.968903 234 5483ft 208kts
11-Jan-19 21:06 44.298073 -121.041011 240 4625ft 219kts
11-Jan-19 21:07 44.274579 -121.099554 244 3697ft 129kts
11-Jan-19 21:08 44.257491 -121.142142 242 3088ft 121kts
11-Jan-19 21:09 44.252436 -121.157505 334 3084ft 0kts
11-Jan-19 21:10 44.252785 -121.159092 313 3085ft 7kts
11-Jan-19 21:11 44.253048 -121.159303 331 3084ft 0kts

Navigation Log

Ident Type
Flight plan parsing failed, navigation log unavailable